Аэропорт: Габала. Габала

ICAO: UBBQ

METAR:
2022-06-26 12:00:00
UBBQ 261200Z 27007KT 9999 NSC 31/18 Q1003 NOSIG RMK MT OP
METAR:
Информация по данной станции не доступна